createdAt,value
2018-10-07T00:02:12.112Z,72.71
2018-10-07T00:04:41.102Z,73.14
2018-10-07T00:07:10.301Z,73.94
2018-10-07T00:09:39.289Z,73.53
2018-10-07T00:12:08.395Z,74.39
2018-10-07T00:14:37.422Z,75.10
2018-10-07T00:17:06.763Z,74.73
2018-10-07T00:19:35.832Z,75.46
2018-10-07T00:22:05.013Z,76.31
2018-10-07T00:24:34.185Z,76.62
2018-10-07T00:27:03.296Z,76.09
2018-10-07T00:29:32.275Z,75.95
2018-10-07T00:32:06.775Z,76.53
2018-10-07T00:34:35.816Z,76.83
2018-10-07T00:37:04.864Z,76.30
2018-10-07T00:39:33.964Z,76.13
2018-10-07T00:42:03.288Z,75.95
2018-10-07T00:44:32.500Z,75.71
2018-10-07T00:47:01.558Z,75.61
2018-10-07T00:49:30.663Z,76.01
2018-10-07T00:51:59.746Z,76.42
2018-10-07T00:54:28.797Z,75.69
2018-10-07T00:56:57.936Z,75.23
2018-10-07T00:59:26.973Z,75.32
2018-10-07T01:01:56.038Z,74.72
2018-10-07T01:04:25.083Z,74.78
2018-10-07T01:06:54.056Z,74.42
2018-10-07T01:09:23.095Z,74.54
2018-10-07T01:11:52.183Z,74.67
2018-10-07T01:14:21.318Z,74.75
2018-10-07T01:16:50.338Z,73.99
2018-10-07T01:19:19.361Z,75.70
2018-10-07T01:21:48.600Z,76.20
2018-10-07T01:24:17.976Z,75.96
2018-10-07T01:26:47.290Z,77.46
2018-10-07T01:29:16.342Z,78.06
2018-10-07T01:31:45.356Z,78.03
2018-10-07T01:34:14.295Z,79.02
2018-10-07T01:36:43.300Z,79.50
2018-10-07T01:39:12.711Z,78.69
2018-10-07T01:41:41.728Z,78.83
2018-10-07T01:44:10.842Z,80.30
2018-10-07T01:46:39.911Z,79.08
2018-10-07T01:49:08.918Z,79.83
2018-10-07T01:51:37.914Z,81.21
2018-10-07T01:54:06.876Z,80.91
2018-10-07T01:56:35.856Z,81.47
2018-10-07T01:59:04.891Z,81.88
2018-10-07T02:01:33.943Z,83.24
2018-10-07T02:04:02.990Z,81.74
2018-10-07T02:06:31.954Z,82.17
2018-10-07T02:09:01.211Z,81.10
2018-10-07T02:11:30.280Z,82.60
2018-10-07T02:13:59.492Z,82.09
2018-10-07T02:16:29.338Z,81.19
2018-10-07T02:18:58.369Z,81.51
2018-10-07T02:21:27.521Z,81.88
2018-10-07T02:23:56.543Z,82.83
2018-10-07T02:26:25.557Z,82.60
2018-10-07T02:28:54.551Z,82.15
2018-10-07T02:31:23.569Z,82.00
2018-10-07T02:33:53.378Z,82.38
2018-10-07T02:36:22.315Z,82.70
2018-10-07T02:38:51.615Z,82.26
2018-10-07T02:41:20.622Z,82.64
2018-10-07T02:43:49.765Z,82.61
2018-10-07T02:46:18.766Z,83.09
2018-10-07T02:48:47.751Z,82.55
2018-10-07T02:51:16.796Z,83.07
2018-10-07T02:53:46.938Z,83.42
2018-10-07T02:56:15.995Z,83.77
2018-10-07T02:58:45.393Z,84.20
2018-10-07T03:01:14.434Z,84.26
2018-10-07T03:03:43.440Z,83.93
2018-10-07T03:06:12.484Z,84.50
2018-10-07T03:08:41.789Z,84.75
2018-10-07T03:11:10.843Z,83.45
2018-10-07T03:13:39.862Z,84.20
2018-10-07T03:16:09.170Z,84.51
2018-10-07T03:18:38.255Z,84.21
2018-10-07T03:21:07.351Z,84.13
2018-10-07T03:23:36.395Z,84.48
2018-10-07T03:26:05.414Z,84.32
2018-10-07T03:28:34.446Z,84.04
2018-10-07T03:31:03.521Z,84.89
2018-10-07T03:33:32.461Z,84.78
2018-10-07T03:36:01.531Z,84.46
2018-10-07T03:38:30.573Z,84.58
2018-10-07T03:40:59.675Z,84.53
2018-10-07T03:43:28.644Z,84.75
2018-10-07T03:45:57.660Z,85.68
2018-10-07T03:48:26.719Z,84.62
2018-10-07T03:50:55.845Z,84.59
2018-10-07T03:53:25.075Z,84.58
2018-10-07T03:55:54.068Z,85.24
2018-10-07T03:58:23.035Z,84.83
2018-10-07T04:00:52.037Z,84.53
2018-10-07T04:03:21.056Z,85.20
2018-10-07T04:05:49.994Z,85.43
2018-10-07T04:08:19.019Z,85.45
2018-10-07T04:10:47.986Z,84.75
2018-10-07T04:13:17.025Z,84.86
2018-10-07T04:15:46.000Z,84.45
2018-10-07T04:18:14.964Z,84.26
2018-10-07T04:20:43.970Z,83.88
2018-10-07T04:23:12.975Z,84.25
2018-10-07T04:25:41.971Z,83.83
2018-10-07T04:28:10.952Z,83.63
2018-10-07T04:30:39.963Z,82.76
2018-10-07T04:33:08.947Z,83.27
2018-10-07T04:35:38.149Z,83.56
2018-10-07T04:38:07.194Z,83.41
2018-10-07T04:40:36.253Z,82.99
2018-10-07T04:43:05.254Z,83.59
2018-10-07T04:45:34.267Z,84.02
2018-10-07T04:48:03.219Z,84.48
2018-10-07T04:50:32.214Z,84.37
2018-10-07T04:53:01.247Z,85.28
2018-10-07T04:55:30.264Z,85.18
2018-10-07T04:57:59.358Z,85.04
2018-10-07T05:00:28.449Z,85.54
2018-10-07T05:02:57.476Z,85.57
2018-10-07T05:05:27.522Z,85.46
2018-10-07T05:07:56.523Z,85.94
2018-10-07T05:10:59.206Z,86.38
2018-10-07T05:13:44.881Z,86.12
2018-10-07T05:16:17.047Z,86.62
2018-10-07T05:18:46.227Z,86.55
2018-10-07T05:21:15.258Z,86.39
2018-10-07T05:23:44.312Z,86.16
2018-10-07T05:26:13.372Z,86.34
2018-10-07T05:28:42.428Z,86.09
2018-10-07T05:31:11.518Z,86.17
2018-10-07T05:33:40.503Z,85.58
2018-10-07T05:36:09.588Z,85.80
2018-10-07T05:38:38.595Z,86.38
2018-10-07T05:41:07.680Z,85.47
2018-10-07T05:43:36.742Z,85.36
2018-10-07T05:46:05.794Z,84.99
2018-10-07T05:48:34.768Z,85.80
2018-10-07T05:51:03.810Z,84.73
2018-10-07T05:53:32.771Z,84.75
2018-10-07T05:56:01.783Z,84.51
2018-10-07T05:58:31.107Z,83.48
2018-10-07T06:01:08.263Z,82.80
2018-10-07T06:03:53.364Z,82.05
2018-10-07T06:06:22.306Z,82.07
2018-10-07T06:08:51.502Z,81.14
2018-10-07T06:11:20.641Z,80.70
2018-10-07T06:13:49.621Z,79.35
2018-10-07T06:16:18.716Z,78.23
2018-10-07T06:18:47.697Z,78.27
2018-10-07T06:21:16.798Z,78.98
2018-10-07T06:23:45.839Z,78.90
2018-10-07T06:26:14.864Z,78.64
2018-10-07T06:28:43.890Z,77.69
2018-10-07T06:31:12.887Z,76.82
2018-10-07T06:33:41.907Z,75.92
2018-10-07T06:36:11.037Z,75.91
2018-10-07T06:38:40.085Z,73.74
2018-10-07T06:41:09.095Z,72.57
2018-10-07T06:43:38.047Z,72.86
2018-10-07T06:46:07.231Z,70.89
2018-10-07T06:48:36.401Z,68.93
2018-10-07T06:51:05.783Z,69.68
2018-10-07T06:53:34.773Z,69.50
2018-10-07T06:56:03.927Z,65.48
2018-10-07T06:58:32.938Z,64.06
2018-10-07T07:01:01.963Z,62.16
2018-10-07T07:03:31.115Z,60.43
2018-10-07T07:06:00.153Z,59.51
2018-10-07T07:08:29.157Z,57.56
2018-10-07T07:10:58.109Z,56.84
2018-10-07T07:13:27.146Z,55.33
2018-10-07T07:15:56.110Z,52.54
2018-10-07T07:20:52.974Z,49.62
2018-10-07T07:23:21.986Z,51.44
2018-10-07T07:25:51.031Z,51.17
2018-10-07T07:28:20.091Z,48.77
2018-10-07T07:30:49.035Z,52.53
2018-10-07T07:33:18.426Z,51.31
2018-10-07T07:35:47.471Z,52.94
2018-10-07T07:38:16.444Z,51.63
2018-10-07T07:40:45.535Z,50.46
2018-10-07T07:43:14.637Z,47.23
2018-10-07T07:45:43.637Z,46.99
2018-10-07T07:48:12.628Z,46.63
2018-10-07T07:50:41.627Z,46.46
2018-10-07T07:53:10.607Z,46.89
2018-10-07T07:55:39.594Z,48.07
2018-10-07T07:58:08.723Z,50.98
2018-10-07T08:00:37.818Z,50.40
2018-10-07T08:03:07.027Z,51.46
2018-10-07T08:05:36.000Z,52.93
2018-10-07T08:08:04.966Z,53.57
2018-10-07T08:10:34.012Z,54.22
2018-10-07T08:13:03.279Z,53.54
2018-10-07T08:15:32.268Z,53.69
2018-10-07T08:18:01.285Z,52.25
2018-10-07T08:20:30.234Z,53.01
2018-10-07T08:22:59.230Z,53.58
2018-10-07T08:25:28.264Z,52.47
2018-10-07T08:27:57.237Z,51.35
2018-10-07T08:30:26.230Z,51.62
2018-10-07T08:32:55.203Z,55.14
2018-10-07T08:35:24.285Z,54.46
2018-10-07T08:37:53.450Z,54.46
2018-10-07T08:40:22.503Z,53.90
2018-10-07T08:42:51.507Z,53.55
2018-10-07T08:45:20.592Z,52.47
2018-10-07T08:47:49.683Z,52.14
2018-10-07T08:50:18.785Z,53.35
2018-10-07T08:52:47.792Z,52.21
2018-10-07T08:55:17.198Z,50.41
2018-10-07T08:57:46.200Z,50.36
2018-10-07T09:00:15.215Z,48.68
2018-10-07T09:02:44.184Z,49.22
2018-10-07T09:05:13.231Z,49.80
2018-10-07T09:07:42.398Z,51.51
2018-10-07T09:10:11.397Z,53.07
2018-10-07T09:12:40.467Z,53.41
2018-10-07T09:15:09.456Z,52.88
2018-10-07T09:17:38.512Z,52.50
2018-10-07T09:20:07.721Z,53.70
2018-10-07T09:22:36.779Z,54.60
2018-10-07T09:25:05.771Z,53.54
2018-10-07T09:27:34.810Z,53.82
2018-10-07T09:30:03.731Z,56.11
2018-10-07T09:32:32.826Z,59.02
2018-10-07T09:35:01.730Z,58.95
2018-10-07T09:37:30.687Z,57.60
2018-10-07T09:39:59.615Z,57.59
2018-10-07T09:42:28.629Z,58.19
2018-10-07T09:44:58.613Z,57.94
2018-10-07T09:47:27.592Z,59.74
2018-10-07T09:49:56.582Z,61.97
2018-10-07T09:52:25.893Z,64.28
2018-10-07T09:54:55.425Z,65.60
2018-10-07T09:57:24.468Z,66.13
2018-10-07T09:59:53.557Z,68.70
2018-10-07T10:02:22.647Z,68.79
2018-10-07T10:04:51.980Z,69.56
2018-10-07T10:07:22.006Z,69.74
2018-10-07T10:09:50.994Z,70.42
2018-10-07T10:12:19.991Z,72.07
2018-10-07T10:14:48.914Z,71.74
2018-10-07T10:17:21.370Z,72.10
2018-10-07T10:20:02.123Z,71.71
2018-10-07T10:22:50.261Z,70.70
2018-10-07T10:25:24.936Z,71.05
2018-10-07T10:28:07.226Z,71.52
2018-10-07T10:30:44.997Z,72.62
2018-10-07T10:33:21.527Z,71.84
2018-10-07T10:36:04.039Z,72.19
2018-10-07T10:38:46.108Z,72.78
2018-10-07T10:41:20.923Z,73.11
2018-10-07T10:44:03.330Z,74.83
2018-10-07T10:46:41.875Z,73.81
2018-10-07T10:49:19.139Z,74.59
2018-10-07T10:51:56.894Z,75.02
2018-10-07T10:54:32.959Z,74.78
2018-10-07T10:57:10.708Z,73.29
2018-10-07T11:00:20.001Z,73.95
2018-10-07T11:03:53.596Z,73.59
2018-10-07T11:07:33.516Z,74.49
2018-10-07T11:10:22.418Z,75.00
2018-10-07T11:12:57.861Z,74.32
2018-10-07T11:15:32.223Z,74.68
2018-10-07T11:18:12.714Z,76.46
2018-10-07T11:20:49.743Z,76.46
2018-10-07T11:25:30.248Z,77.40
2018-10-07T11:28:40.878Z,78.11
2018-10-07T11:31:28.958Z,78.11
2018-10-07T11:34:09.960Z,77.54
2018-10-07T11:37:16.503Z,78.91
2018-10-07T11:39:56.669Z,78.76
2018-10-07T11:42:30.799Z,77.90
2018-10-07T11:45:20.844Z,78.18
2018-10-07T11:48:03.223Z,77.83
2018-10-07T11:50:45.602Z,76.87
2018-10-07T11:53:26.067Z,77.08
2018-10-07T11:55:55.069Z,77.29
2018-10-07T11:58:24.285Z,78.02
2018-10-07T12:00:53.279Z,77.51
2018-10-07T12:03:22.294Z,77.50
2018-10-07T12:05:51.346Z,77.59
2018-10-07T12:08:20.550Z,77.54
2018-10-07T12:10:53.845Z,77.87
2018-10-07T12:13:22.846Z,77.92
2018-10-07T12:15:51.852Z,78.23
2018-10-07T12:18:20.848Z,78.35
2018-10-07T12:20:50.116Z,78.25
2018-10-07T12:23:19.118Z,78.73
2018-10-07T12:25:48.194Z,78.22
2018-10-07T12:28:17.240Z,77.96
2018-10-07T12:30:46.230Z,78.37
2018-10-07T12:33:15.182Z,78.19
2018-10-07T12:35:44.135Z,77.58
2018-10-07T12:38:13.107Z,77.34
2018-10-07T12:40:42.121Z,76.93
2018-10-07T12:43:11.196Z,76.05
2018-10-07T12:45:40.190Z,75.31
2018-10-07T12:48:09.184Z,76.81
2018-10-07T12:50:38.159Z,76.06
2018-10-07T12:53:07.148Z,76.02
2018-10-07T12:55:36.133Z,76.28
2018-10-07T12:58:05.133Z,76.38
2018-10-07T13:00:35.001Z,75.79
2018-10-07T13:03:04.086Z,75.51
2018-10-07T13:05:33.023Z,77.04
2018-10-07T13:08:02.036Z,76.25
2018-10-07T13:10:31.018Z,75.65
2018-10-07T13:13:00.027Z,76.56
2018-10-07T13:15:29.027Z,76.45
2018-10-07T13:17:57.996Z,75.79
2018-10-07T13:20:27.016Z,76.77
2018-10-07T13:22:56.079Z,75.40
2018-10-07T13:25:25.175Z,76.27
2018-10-07T13:27:54.196Z,76.24
2018-10-07T13:30:23.187Z,76.41
2018-10-07T13:32:52.210Z,75.39
2018-10-07T13:35:21.159Z,75.80
2018-10-07T13:37:50.222Z,75.10
2018-10-07T13:40:19.302Z,74.08
2018-10-07T13:42:48.290Z,73.97
2018-10-07T13:45:17.282Z,73.26
2018-10-07T13:47:46.329Z,72.71
2018-10-07T13:50:15.371Z,72.17
2018-10-07T13:52:44.359Z,72.42
2018-10-07T13:55:13.410Z,73.18
2018-10-07T13:57:42.395Z,73.23
2018-10-07T14:00:11.587Z,72.27
2018-10-07T14:02:40.622Z,73.53
2018-10-07T14:05:09.617Z,73.42
2018-10-07T14:07:38.591Z,70.85
2018-10-07T14:10:07.552Z,71.33
2018-10-07T14:12:36.574Z,71.26
2018-10-07T14:15:05.956Z,71.62
2018-10-07T14:17:34.997Z,71.60
2018-10-07T14:20:04.304Z,72.53
2018-10-07T14:22:33.335Z,73.00
2018-10-07T14:25:02.393Z,72.18
2018-10-07T14:27:31.665Z,73.42
2018-10-07T14:30:00.708Z,72.39
2018-10-07T14:32:29.661Z,74.41
2018-10-07T14:34:58.677Z,74.02
2018-10-07T14:37:27.651Z,73.68
2018-10-07T14:39:56.659Z,73.17
2018-10-07T14:42:25.684Z,73.35
2018-10-07T14:44:54.647Z,73.88
2018-10-07T14:47:23.642Z,73.19
2018-10-07T14:49:52.726Z,73.63
2018-10-07T14:52:21.812Z,73.62
2018-10-07T14:54:50.743Z,73.53
2018-10-07T14:57:19.683Z,73.17
2018-10-07T14:59:48.720Z,73.05
2018-10-07T15:02:18.109Z,73.07
2018-10-07T15:04:47.330Z,71.52
2018-10-07T15:07:16.395Z,72.29
2018-10-07T15:09:45.592Z,72.21
2018-10-07T15:12:14.560Z,73.02
2018-10-07T15:14:43.663Z,71.50
2018-10-07T15:17:12.699Z,72.79
2018-10-07T15:19:41.766Z,72.23
2018-10-07T15:22:10.793Z,71.82
2018-10-07T15:24:39.791Z,72.71
2018-10-07T15:27:08.802Z,72.46
2018-10-07T15:29:37.783Z,72.57
2018-10-07T15:32:06.796Z,72.88
2018-10-07T15:34:35.792Z,72.88
2018-10-07T15:37:04.729Z,73.17
2018-10-07T15:39:33.783Z,72.16
2018-10-07T15:42:02.818Z,72.00
2018-10-07T15:44:31.828Z,72.55
2018-10-07T15:47:00.871Z,72.62
2018-10-07T15:49:29.910Z,72.80
2018-10-07T15:51:59.009Z,73.37
2018-10-07T15:54:27.993Z,73.61
2018-10-07T15:56:57.018Z,73.37
2018-10-07T15:59:26.092Z,73.26
2018-10-07T16:01:55.159Z,74.22
2018-10-07T16:04:24.249Z,73.90
2018-10-07T16:06:53.316Z,74.28
2018-10-07T16:09:22.299Z,74.02
2018-10-07T16:11:51.288Z,73.48
2018-10-07T16:14:20.477Z,73.44
2018-10-07T16:16:49.647Z,75.08
2018-10-07T16:19:18.713Z,74.49
2018-10-07T16:21:47.701Z,74.30
2018-10-07T16:24:16.729Z,74.83
2018-10-07T16:26:45.809Z,74.65
2018-10-07T16:29:14.730Z,74.46
2018-10-07T16:31:43.757Z,74.61
2018-10-07T16:34:12.750Z,74.86
2018-10-07T16:36:41.840Z,75.03
2018-10-07T16:39:10.918Z,75.10
2018-10-07T16:41:39.959Z,75.06
2018-10-07T16:44:09.065Z,74.58
2018-10-07T16:46:38.170Z,74.50
2018-10-07T16:49:07.236Z,74.72
2018-10-07T16:51:36.243Z,75.13
2018-10-07T16:54:05.222Z,75.30
2018-10-07T16:56:34.185Z,75.92
2018-10-07T16:59:03.234Z,75.94
2018-10-07T17:01:32.241Z,74.60
2018-10-07T17:04:01.382Z,75.19
2018-10-07T17:06:30.393Z,74.11
2018-10-07T17:08:59.440Z,75.35
2018-10-07T17:11:28.532Z,75.41
2018-10-07T17:13:57.637Z,73.83
2018-10-07T17:16:26.666Z,73.81
2018-10-07T17:18:55.690Z,73.92
2018-10-07T17:21:24.677Z,74.68
2018-10-07T17:23:53.678Z,74.36
2018-10-07T17:26:22.681Z,73.74
2018-10-07T17:28:51.740Z,74.39
2018-10-07T17:31:20.758Z,73.25
2018-10-07T17:33:49.747Z,74.96
2018-10-07T17:36:18.775Z,74.49
2018-10-07T17:38:47.869Z,74.75
2018-10-07T17:41:16.947Z,74.01
2018-10-07T17:43:45.979Z,74.24
2018-10-07T17:46:15.017Z,73.77
2018-10-07T17:48:44.078Z,73.56
2018-10-07T17:51:13.090Z,73.77
2018-10-07T17:53:42.086Z,73.12
2018-10-07T17:56:11.117Z,74.32
2018-10-07T17:58:40.374Z,74.03
2018-10-07T18:01:09.401Z,73.13
2018-10-07T18:03:38.377Z,72.41
2018-10-07T18:06:07.403Z,72.94
2018-10-07T18:08:37.063Z,72.51
2018-10-07T18:11:06.118Z,72.57
2018-10-07T18:13:35.499Z,72.44
2018-10-07T18:16:04.484Z,73.84
2018-10-07T18:18:33.528Z,74.03
2018-10-07T18:21:02.709Z,72.20
2018-10-07T18:23:31.683Z,72.23
2018-10-07T18:26:00.679Z,71.72
2018-10-07T18:28:29.676Z,73.22
2018-10-07T18:30:58.659Z,73.16
2018-10-07T18:33:27.629Z,72.41
2018-10-07T18:35:56.617Z,72.71
2018-10-07T18:38:25.657Z,72.26
2018-10-07T18:40:54.643Z,72.26
2018-10-07T18:43:23.631Z,71.44
2018-10-07T18:45:52.601Z,70.89
2018-10-07T18:48:21.631Z,71.70
2018-10-07T18:50:50.702Z,71.58
2018-10-07T18:53:19.672Z,72.12
2018-10-07T18:55:48.904Z,73.29
2018-10-07T18:58:17.878Z,72.55
2018-10-07T19:00:46.900Z,73.39
2018-10-07T19:03:15.873Z,73.46
2018-10-07T19:05:44.896Z,72.95
2018-10-07T19:08:14.016Z,72.67
2018-10-07T19:10:42.987Z,72.58
2018-10-07T19:13:12.020Z,72.82
2018-10-07T19:15:41.100Z,72.36
2018-10-07T19:18:10.150Z,72.83
2018-10-07T19:20:39.220Z,71.61
2018-10-07T19:23:08.309Z,72.45
2018-10-07T19:25:37.373Z,72.47
2018-10-07T19:28:06.684Z,72.31
2018-10-07T19:30:35.776Z,72.02
2018-10-07T19:33:04.793Z,72.48
2018-10-07T19:35:33.844Z,72.94
2018-10-07T19:38:02.838Z,72.89
2018-10-07T19:40:31.900Z,73.20
2018-10-07T19:43:00.863Z,73.11
2018-10-07T19:45:30.065Z,74.39
2018-10-07T19:49:01.891Z,73.25
2018-10-07T19:51:30.835Z,73.63
2018-10-07T19:53:59.904Z,74.44
2018-10-07T19:56:28.979Z,73.74
2018-10-07T19:58:57.975Z,73.66
2018-10-07T20:01:26.968Z,73.76
2018-10-07T20:03:55.926Z,74.94
2018-10-07T20:06:24.869Z,75.23
2018-10-07T20:08:53.936Z,74.73
2018-10-07T20:11:22.951Z,74.41
2018-10-07T20:13:51.891Z,75.29
2018-10-07T20:16:20.910Z,75.17
2018-10-07T20:18:49.933Z,75.06
2018-10-07T20:21:19.105Z,76.22
2018-10-07T20:23:48.156Z,75.58
2018-10-07T20:26:17.259Z,76.25
2018-10-07T20:28:46.186Z,76.34
2018-10-07T20:31:15.259Z,76.66
2018-10-07T20:33:44.263Z,76.09
2018-10-07T20:36:13.314Z,76.16
2018-10-07T20:38:43.407Z,77.54
2018-10-07T20:41:12.409Z,78.23
2018-10-07T20:43:41.490Z,78.01
2018-10-07T20:46:10.704Z,78.45
2018-10-07T20:48:39.711Z,79.14
2018-10-07T20:51:08.787Z,78.96
2018-10-07T20:53:37.766Z,78.77
2018-10-07T20:56:07.372Z,78.96
2018-10-07T20:58:36.359Z,79.14
2018-10-07T21:01:07.006Z,79.34
2018-10-07T21:03:36.546Z,79.11
2018-10-07T21:06:05.609Z,79.97
2018-10-07T21:08:34.722Z,79.59
2018-10-07T21:11:03.664Z,79.71
2018-10-07T21:13:32.700Z,80.24
2018-10-07T21:16:01.700Z,79.98
2018-10-07T21:18:30.687Z,79.96
2018-10-07T21:20:59.671Z,80.79
2018-10-07T21:23:28.727Z,81.20
2018-10-07T21:25:57.803Z,81.29
2018-10-07T21:28:26.886Z,82.60
2018-10-07T21:30:55.882Z,82.54
2018-10-07T21:33:24.868Z,82.19
2018-10-07T21:35:53.830Z,82.41
2018-10-07T21:38:22.845Z,82.99
2018-10-07T21:40:51.825Z,82.83
2018-10-07T21:43:20.831Z,82.61
2018-10-07T21:45:49.845Z,83.21
2018-10-07T21:48:19.365Z,83.90
2018-10-07T21:50:48.294Z,83.73
2018-10-07T21:53:17.306Z,83.63
2018-10-07T21:55:46.321Z,84.96
2018-10-07T21:58:15.298Z,84.76
2018-10-07T22:00:44.293Z,84.59
2018-10-07T22:03:13.260Z,84.06
2018-10-07T22:05:42.209Z,84.03
2018-10-07T22:08:11.278Z,84.75
2018-10-07T22:10:40.340Z,85.35
2018-10-07T22:13:09.552Z,84.79
2018-10-07T22:15:38.543Z,85.55
2018-10-07T22:18:07.527Z,85.92
2018-10-07T22:20:36.534Z,85.11
2018-10-07T22:23:05.617Z,85.28
2018-10-07T22:25:34.598Z,84.91
2018-10-07T22:28:03.566Z,84.59
2018-10-07T22:30:32.518Z,84.70
2018-10-07T22:33:01.515Z,84.84
2018-10-07T22:35:30.544Z,85.02
2018-10-07T22:37:59.535Z,84.53
2018-10-07T22:40:28.666Z,84.77
2018-10-07T22:42:57.731Z,85.49
2018-10-07T22:45:26.729Z,85.62
2018-10-07T22:47:55.729Z,85.41
2018-10-07T22:50:24.659Z,85.32
2018-10-07T22:52:53.650Z,85.46
2018-10-07T22:55:22.696Z,85.42
2018-10-07T22:57:51.691Z,86.71
2018-10-07T23:00:20.691Z,87.28
2018-10-07T23:02:49.724Z,86.54
2018-10-07T23:05:18.806Z,87.73
2018-10-07T23:07:47.839Z,87.97
2018-10-07T23:10:16.895Z,88.29
2018-10-07T23:12:45.956Z,88.56
2018-10-07T23:15:14.930Z,89.02
2018-10-07T23:17:43.955Z,88.55
2018-10-07T23:20:12.957Z,89.12
2018-10-07T23:22:41.970Z,89.48
2018-10-07T23:25:11.086Z,89.62
2018-10-07T23:27:40.065Z,89.69
2018-10-07T23:30:09.114Z,90.59
2018-10-07T23:32:38.070Z,90.50
2018-10-07T23:35:07.121Z,90.32
2018-10-07T23:37:36.377Z,90.19
2018-10-07T23:40:05.752Z,89.55
2018-10-07T23:42:34.797Z,89.37
2018-10-07T23:45:03.896Z,89.54
2018-10-07T23:47:32.881Z,89.68
2018-10-07T23:50:01.867Z,90.32
2018-10-07T23:52:31.003Z,90.05
2018-10-07T23:54:59.963Z,90.44
2018-10-07T23:57:28.966Z,90.51
2018-10-07T23:59:58.029Z,91.15
